sensor_id;sensor_type;location;lat;lon;timestamp;pressure;altitude;pressure_sealevel;temperature;humidity
55604;BME280;41468;48.838;9.330;2023-04-30T00:01:57;98615.00;;;12.46;91.72
55604;BME280;41468;48.838;9.330;2023-04-30T00:04:24;98617.94;;;12.30;92.57
55604;BME280;41468;48.838;9.330;2023-04-30T00:06:51;98631.25;;;12.32;92.20
55604;BME280;41468;48.838;9.330;2023-04-30T00:09:18;98624.44;;;12.49;91.13
55604;BME280;41468;48.838;9.330;2023-04-30T00:11:44;98623.75;;;12.55;91.05
55604;BME280;41468;48.838;9.330;2023-04-30T00:14:11;98630.50;;;12.65;90.55
55604;BME280;41468;48.838;9.330;2023-04-30T00:16:38;98630.03;;;12.59;90.67
55604;BME280;41468;48.838;9.330;2023-04-30T00:19:05;98625.72;;;12.58;90.75
55604;BME280;41468;48.838;9.330;2023-04-30T00:21:32;98629.69;;;12.61;91.28
55604;BME280;41468;48.838;9.330;2023-04-30T00:23:59;98619.75;;;12.49;92.64
55604;BME280;41468;48.838;9.330;2023-04-30T00:26:29;98624.75;;;12.44;92.37
55604;BME280;41468;48.838;9.330;2023-04-30T00:28:56;98627.41;;;12.36;93.35
55604;BME280;41468;48.838;9.330;2023-04-30T00:31:22;98628.88;;;12.30;93.88
55604;BME280;41468;48.838;9.330;2023-04-30T00:33:49;98626.88;;;12.27;93.68
55604;BME280;41468;48.838;9.330;2023-04-30T00:36:17;98623.22;;;12.16;95.06
55604;BME280;41468;48.838;9.330;2023-04-30T00:38:43;98629.34;;;12.06;94.62
55604;BME280;41468;48.838;9.330;2023-04-30T00:41:10;98627.88;;;12.12;94.43
55604;BME280;41468;48.838;9.330;2023-04-30T00:43:37;98626.72;;;12.13;95.69
55604;BME280;41468;48.838;9.330;2023-04-30T00:46:04;98631.34;;;12.09;94.76
55604;BME280;41468;48.838;9.330;2023-04-30T00:48:32;98627.78;;;12.05;95.05
55604;BME280;41468;48.838;9.330;2023-04-30T00:51:01;98631.41;;;12.12;93.66
55604;BME280;41468;48.838;9.330;2023-04-30T00:53:28;98633.41;;;12.15;92.27
55604;BME280;41468;48.838;9.330;2023-04-30T00:55:56;98637.69;;;12.16;90.43
55604;BME280;41468;48.838;9.330;2023-04-30T00:58:23;98638.72;;;12.05;90.42
55604;BME280;41468;48.838;9.330;2023-04-30T01:00:49;98631.72;;;12.07;90.93
55604;BME280;41468;48.838;9.330;2023-04-30T01:03:17;98648.19;;;12.11;90.84
55604;BME280;41468;48.838;9.330;2023-04-30T01:05:44;98639.28;;;12.18;90.63
55604;BME280;41468;48.838;9.330;2023-04-30T01:08:11;98635.97;;;12.05;91.25
55604;BME280;41468;48.838;9.330;2023-04-30T01:10:47;98635.28;;;12.11;90.88
55604;BME280;41468;48.838;9.330;2023-04-30T01:13:27;98639.63;;;12.12;91.52
55604;BME280;41468;48.838;9.330;2023-04-30T01:16:04;98633.72;;;12.10;91.62
55604;BME280;41468;48.838;9.330;2023-04-30T01:18:38;98639.53;;;12.09;92.03
55604;BME280;41468;48.838;9.330;2023-04-30T01:21:08;98626.44;;;11.95;91.63
55604;BME280;41468;48.838;9.330;2023-04-30T01:23:53;98639.03;;;12.00;91.50
55604;BME280;41468;48.838;9.330;2023-04-30T01:26:47;98641.78;;;12.00;90.98
55604;BME280;41468;48.838;9.330;2023-04-30T01:29:18;98634.78;;;12.02;90.64
55604;BME280;41468;48.838;9.330;2023-04-30T01:31:50;98628.72;;;11.89;91.07
55604;BME280;41468;48.838;9.330;2023-04-30T01:34:17;98631.44;;;11.89;91.33
55604;BME280;41468;48.838;9.330;2023-04-30T01:37:10;98633.44;;;11.92;91.94
55604;BME280;41468;48.838;9.330;2023-04-30T01:43:16;98626.09;;;11.97;91.66
55604;BME280;41468;48.838;9.330;2023-04-30T01:45:58;98624.44;;;11.92;91.89
55604;BME280;41468;48.838;9.330;2023-04-30T01:51:49;98617.22;;;11.80;90.76
55604;BME280;41468;48.838;9.330;2023-04-30T01:54:26;98617.97;;;11.77;91.48
55604;BME280;41468;48.838;9.330;2023-04-30T01:57:03;98621.91;;;11.80;90.52
55604;BME280;41468;48.838;9.330;2023-04-30T01:59:37;98618.78;;;11.81;90.00
55604;BME280;41468;48.838;9.330;2023-04-30T02:02:05;98621.78;;;11.72;90.42
55604;BME280;41468;48.838;9.330;2023-04-30T02:04:32;98618.28;;;11.72;90.41
55604;BME280;41468;48.838;9.330;2023-04-30T02:06:58;98623.44;;;11.77;89.96
55604;BME280;41468;48.838;9.330;2023-04-30T02:09:25;98625.84;;;11.82;90.39
55604;BME280;41468;48.838;9.330;2023-04-30T02:11:52;98623.19;;;11.86;90.62
55604;BME280;41468;48.838;9.330;2023-04-30T02:14:19;98619.72;;;11.89;89.83
55604;BME280;41468;48.838;9.330;2023-04-30T02:16:45;98613.56;;;11.96;89.50
55604;BME280;41468;48.838;9.330;2023-04-30T02:19:17;98612.72;;;11.91;89.84
55604;BME280;41468;48.838;9.330;2023-04-30T02:21:43;98611.09;;;11.87;90.04
55604;BME280;41468;48.838;9.330;2023-04-30T02:24:10;98613.75;;;11.83;90.41
55604;BME280;41468;48.838;9.330;2023-04-30T02:26:37;98609.75;;;11.77;90.22
55604;BME280;41468;48.838;9.330;2023-04-30T02:29:03;98610.91;;;11.76;90.84
55604;BME280;41468;48.838;9.330;2023-04-30T02:31:30;98605.69;;;11.90;90.81
55604;BME280;41468;48.838;9.330;2023-04-30T02:33:57;98607.09;;;11.84;89.91
55604;BME280;41468;48.838;9.330;2023-04-30T02:36:24;98602.38;;;11.81;89.50
55604;BME280;41468;48.838;9.330;2023-04-30T02:38:50;98607.03;;;11.77;89.45
55604;BME280;41468;48.838;9.330;2023-04-30T02:41:17;98609.38;;;11.79;89.21
55604;BME280;41468;48.838;9.330;2023-04-30T02:43:48;98604.09;;;11.89;88.64
55604;BME280;41468;48.838;9.330;2023-04-30T02:46:15;98603.44;;;11.73;88.28
55604;BME280;41468;48.838;9.330;2023-04-30T02:48:42;98602.69;;;11.76;87.17
55604;BME280;41468;48.838;9.330;2023-04-30T02:51:08;98607.69;;;11.70;88.21
55604;BME280;41468;48.838;9.330;2023-04-30T02:53:40;98596.69;;;11.67;89.16
55604;BME280;41468;48.838;9.330;2023-04-30T02:56:06;98596.75;;;11.70;89.09
55604;BME280;41468;48.838;9.330;2023-04-30T02:58:33;98604.47;;;11.65;89.44
55604;BME280;41468;48.838;9.330;2023-04-30T03:01:00;98600.53;;;11.62;88.66
55604;BME280;41468;48.838;9.330;2023-04-30T03:03:27;98602.91;;;11.64;88.31
55604;BME280;41468;48.838;9.330;2023-04-30T03:05:53;98604.13;;;11.66;88.66
55604;BME280;41468;48.838;9.330;2023-04-30T03:08:22;98604.59;;;11.72;87.77
55604;BME280;41468;48.838;9.330;2023-04-30T03:10:48;98607.16;;;11.61;88.84
55604;BME280;41468;48.838;9.330;2023-04-30T03:13:15;98606.78;;;11.63;90.42
55604;BME280;41468;48.838;9.330;2023-04-30T03:15:42;98607.63;;;11.67;90.62
55604;BME280;41468;48.838;9.330;2023-04-30T03:18:09;98614.06;;;11.78;90.43
55604;BME280;41468;48.838;9.330;2023-04-30T03:20:36;98616.38;;;11.76;90.36
55604;BME280;41468;48.838;9.330;2023-04-30T03:23:03;98614.25;;;11.66;90.26
55604;BME280;41468;48.838;9.330;2023-04-30T03:25:30;98606.22;;;11.77;90.08
55604;BME280;41468;48.838;9.330;2023-04-30T03:27:56;98607.56;;;11.86;88.74
55604;BME280;41468;48.838;9.330;2023-04-30T03:30:23;98604.47;;;11.88;89.21
55604;BME280;41468;48.838;9.330;2023-04-30T03:32:50;98606.91;;;11.70;90.20
55604;BME280;41468;48.838;9.330;2023-04-30T03:35:17;98607.84;;;11.55;91.12
55604;BME280;41468;48.838;9.330;2023-04-30T03:37:44;98611.19;;;11.44;90.12
55604;BME280;41468;48.838;9.330;2023-04-30T03:40:11;98605.22;;;11.62;87.57
55604;BME280;41468;48.838;9.330;2023-04-30T03:42:38;98606.69;;;11.56;86.01
55604;BME280;41468;48.838;9.330;2023-04-30T03:45:05;98612.53;;;11.31;87.24
55604;BME280;41468;48.838;9.330;2023-04-30T03:47:33;98616.66;;;11.44;87.74
55604;BME280;41468;48.838;9.330;2023-04-30T03:50:01;98614.63;;;11.64;87.83
55604;BME280;41468;48.838;9.330;2023-04-30T03:52:28;98614.63;;;11.64;88.83
55604;BME280;41468;48.838;9.330;2023-04-30T03:54:56;98611.50;;;11.66;88.79
55604;BME280;41468;48.838;9.330;2023-04-30T03:57:23;98610.13;;;11.76;88.72
55604;BME280;41468;48.838;9.330;2023-04-30T03:59:50;98610.06;;;11.72;87.78
55604;BME280;41468;48.838;9.330;2023-04-30T04:02:17;98617.84;;;11.70;88.17
55604;BME280;41468;48.838;9.330;2023-04-30T04:04:48;98617.47;;;11.45;89.72
55604;BME280;41468;48.838;9.330;2023-04-30T04:07:16;98618.03;;;11.58;89.18
55604;BME280;41468;48.838;9.330;2023-04-30T04:09:47;98612.94;;;11.33;91.60
55604;BME280;41468;48.838;9.330;2023-04-30T04:12:14;98616.63;;;11.18;89.47
55604;BME280;41468;48.838;9.330;2023-04-30T04:14:41;98614.47;;;11.31;89.65
55604;BME280;41468;48.838;9.330;2023-04-30T04:17:12;98618.19;;;11.42;90.39
55604;BME280;41468;48.838;9.330;2023-04-30T04:19:39;98625.78;;;11.29;91.93
55604;BME280;41468;48.838;9.330;2023-04-30T04:22:06;98623.47;;;11.31;90.75
55604;BME280;41468;48.838;9.330;2023-04-30T04:24:33;98623.06;;;11.29;88.87
55604;BME280;41468;48.838;9.330;2023-04-30T04:26:59;98633.47;;;11.46;89.06
55604;BME280;41468;48.838;9.330;2023-04-30T04:29:32;98633.31;;;11.59;90.15
55604;BME280;41468;48.838;9.330;2023-04-30T04:32:00;98631.78;;;11.38;91.28
55604;BME280;41468;48.838;9.330;2023-04-30T04:34:28;98629.72;;;11.32;92.96
55604;BME280;41468;48.838;9.330;2023-04-30T04:36:54;98634.22;;;11.43;92.97
55604;BME280;41468;48.838;9.330;2023-04-30T04:39:33;98640.84;;;11.42;92.95
55604;BME280;41468;48.838;9.330;2023-04-30T04:42:02;98637.34;;;11.42;91.85
55604;BME280;41468;48.838;9.330;2023-04-30T04:44:39;98636.81;;;11.36;90.82
55604;BME280;41468;48.838;9.330;2023-04-30T04:47:06;98637.56;;;11.33;89.87
55604;BME280;41468;48.838;9.330;2023-04-30T04:49:34;98645.34;;;11.31;89.09
55604;BME280;41468;48.838;9.330;2023-04-30T04:52:00;98640.47;;;11.44;87.10
55604;BME280;41468;48.838;9.330;2023-04-30T04:54:27;98637.84;;;11.28;87.26
55604;BME280;41468;48.838;9.330;2023-04-30T04:56:54;98638.34;;;11.34;87.45
55604;BME280;41468;48.838;9.330;2023-04-30T04:59:21;98635.47;;;11.49;87.25
55604;BME280;41468;48.838;9.330;2023-04-30T05:01:47;98641.25;;;11.44;89.04
55604;BME280;41468;48.838;9.330;2023-04-30T05:04:14;98637.88;;;11.51;88.61
55604;BME280;41468;48.838;9.330;2023-04-30T05:06:41;98630.88;;;11.54;86.54
55604;BME280;41468;48.838;9.330;2023-04-30T05:09:08;98629.56;;;11.70;87.03
55604;BME280;41468;48.838;9.330;2023-04-30T05:11:35;98635.44;;;11.69;88.10
55604;BME280;41468;48.838;9.330;2023-04-30T05:14:02;98631.22;;;11.75;88.99
55604;BME280;41468;48.838;9.330;2023-04-30T05:16:28;98633.00;;;11.64;87.73
55604;BME280;41468;48.838;9.330;2023-04-30T05:18:55;98637.84;;;11.74;85.14
55604;BME280;41468;48.838;9.330;2023-04-30T05:21:22;98641.50;;;11.59;85.30
55604;BME280;41468;48.838;9.330;2023-04-30T05:23:49;98636.13;;;11.66;85.16
55604;BME280;41468;48.838;9.330;2023-04-30T05:26:16;98642.41;;;11.66;86.66
55604;BME280;41468;48.838;9.330;2023-04-30T05:28:42;98645.06;;;11.63;85.23
55604;BME280;41468;48.838;9.330;2023-04-30T05:31:09;98645.09;;;11.86;84.30
55604;BME280;41468;48.838;9.330;2023-04-30T05:33:36;98638.38;;;11.83;84.61
55604;BME280;41468;48.838;9.330;2023-04-30T05:36:03;98650.28;;;11.94;84.46
55604;BME280;41468;48.838;9.330;2023-04-30T05:38:29;98643.69;;;11.96;82.65
55604;BME280;41468;48.838;9.330;2023-04-30T05:40:56;98649.63;;;12.01;82.25
55604;BME280;41468;48.838;9.330;2023-04-30T05:43:23;98644.06;;;11.98;82.18
55604;BME280;41468;48.838;9.330;2023-04-30T05:45:57;98652.75;;;12.03;82.34
55604;BME280;41468;48.838;9.330;2023-04-30T05:48:23;98643.69;;;11.96;81.76
55604;BME280;41468;48.838;9.330;2023-04-30T05:50:50;98643.84;;;11.83;82.15
55604;BME280;41468;48.838;9.330;2023-04-30T05:53:17;98648.28;;;11.91;82.05
55604;BME280;41468;48.838;9.330;2023-04-30T05:55:44;98634.56;;;11.88;82.51
55604;BME280;41468;48.838;9.330;2023-04-30T05:58:10;98639.53;;;11.82;83.40
55604;BME280;41468;48.838;9.330;2023-04-30T06:00:37;98635.78;;;11.90;82.99
55604;BME280;41468;48.838;9.330;2023-04-30T06:03:04;98641.56;;;12.12;82.30
55604;BME280;41468;48.838;9.330;2023-04-30T06:05:31;98645.22;;;12.23;81.63
55604;BME280;41468;48.838;9.330;2023-04-30T06:07:58;98637.47;;;11.99;81.93
55604;BME280;41468;48.838;9.330;2023-04-30T06:10:25;98648.59;;;12.40;79.73
55604;BME280;41468;48.838;9.330;2023-04-30T06:12:52;98643.22;;;12.47;80.24
55604;BME280;41468;48.838;9.330;2023-04-30T06:15:18;98641.44;;;12.65;79.48
55604;BME280;41468;48.838;9.330;2023-04-30T06:17:45;98649.63;;;12.62;78.21
55604;BME280;41468;48.838;9.330;2023-04-30T06:20:12;98642.38;;;12.76;76.73
55604;BME280;41468;48.838;9.330;2023-04-30T06:22:40;98651.88;;;12.52;77.17
55604;BME280;41468;48.838;9.330;2023-04-30T06:25:07;98660.50;;;12.54;77.65
55604;BME280;41468;48.838;9.330;2023-04-30T06:27:34;98652.09;;;12.70;77.68
55604;BME280;41468;48.838;9.330;2023-04-30T06:30:01;98645.31;;;12.94;77.27
55604;BME280;41468;48.838;9.330;2023-04-30T06:32:27;98648.78;;;12.88;77.27
55604;BME280;41468;48.838;9.330;2023-04-30T06:34:54;98646.47;;;12.93;76.37
55604;BME280;41468;48.838;9.330;2023-04-30T06:37:21;98650.56;;;13.10;75.46
55604;BME280;41468;48.838;9.330;2023-04-30T06:39:48;98647.03;;;13.10;76.02
55604;BME280;41468;48.838;9.330;2023-04-30T06:42:15;98648.66;;;13.14;76.88
55604;BME280;41468;48.838;9.330;2023-04-30T06:44:46;98650.97;;;13.46;75.93
55604;BME280;41468;48.838;9.330;2023-04-30T06:47:13;98656.31;;;13.80;74.09
55604;BME280;41468;48.838;9.330;2023-04-30T06:49:40;98651.84;;;13.61;73.07
55604;BME280;41468;48.838;9.330;2023-04-30T06:52:07;98656.66;;;13.75;72.63
55604;BME280;41468;48.838;9.330;2023-04-30T06:54:33;98655.59;;;13.86;72.42
55604;BME280;41468;48.838;9.330;2023-04-30T06:57:00;98653.44;;;14.13;71.12
55604;BME280;41468;48.838;9.330;2023-04-30T06:59:28;98648.91;;;14.46;71.26
55604;BME280;41468;48.838;9.330;2023-04-30T07:01:55;98652.69;;;14.24;68.92
55604;BME280;41468;48.838;9.330;2023-04-30T07:04:21;98652.94;;;13.97;69.99
55604;BME280;41468;48.838;9.330;2023-04-30T07:06:50;98656.31;;;13.80;70.34
55604;BME280;41468;48.838;9.330;2023-04-30T07:09:16;98660.03;;;14.05;70.87
55604;BME280;41468;48.838;9.330;2023-04-30T07:11:43;98657.75;;;14.14;70.07
55604;BME280;41468;48.838;9.330;2023-04-30T07:14:10;98646.34;;;14.12;70.40
55604;BME280;41468;48.838;9.330;2023-04-30T07:16:37;98637.44;;;14.30;70.51
55604;BME280;41468;48.838;9.330;2023-04-30T07:19:04;98645.09;;;14.65;70.35
55604;BME280;41468;48.838;9.330;2023-04-30T07:21:30;98644.75;;;14.85;69.00
55604;BME280;41468;48.838;9.330;2023-04-30T07:23:58;98640.44;;;14.91;67.22
55604;BME280;41468;48.838;9.330;2023-04-30T07:26:24;98640.75;;;14.61;66.35
55604;BME280;41468;48.838;9.330;2023-04-30T07:28:52;98637.53;;;14.51;69.24
55604;BME280;41468;48.838;9.330;2023-04-30T07:31:18;98648.25;;;14.74;68.75
55604;BME280;41468;48.838;9.330;2023-04-30T07:33:45;98640.88;;;14.96;67.61
55604;BME280;41468;48.838;9.330;2023-04-30T07:36:12;98629.94;;;15.32;64.02
55604;BME280;41468;48.838;9.330;2023-04-30T07:38:39;98633.44;;;15.08;64.19
55604;BME280;41468;48.838;9.330;2023-04-30T07:41:06;98631.91;;;15.32;62.73
55604;BME280;41468;48.838;9.330;2023-04-30T07:43:34;98627.19;;;15.39;60.88
55604;BME280;41468;48.838;9.330;2023-04-30T07:46:01;98626.78;;;15.66;61.53
55604;BME280;41468;48.838;9.330;2023-04-30T07:48:29;98628.81;;;15.73;60.20
55604;BME280;41468;48.838;9.330;2023-04-30T07:50:56;98629.94;;;16.00;60.40
55604;BME280;41468;48.838;9.330;2023-04-30T07:53:23;98636.19;;;16.29;58.28
55604;BME280;41468;48.838;9.330;2023-04-30T07:55:49;98631.84;;;16.32;58.41
55604;BME280;41468;48.838;9.330;2023-04-30T07:58:16;98631.84;;;16.32;58.38
55604;BME280;41468;48.838;9.330;2023-04-30T08:00:43;98629.44;;;16.45;58.61
55604;BME280;41468;48.838;9.330;2023-04-30T08:03:14;98629.38;;;16.59;57.36
55604;BME280;41468;48.838;9.330;2023-04-30T08:05:46;98627.03;;;16.54;58.29
55604;BME280;41468;48.838;9.330;2023-04-30T08:08:12;98624.66;;;16.63;58.36
55604;BME280;41468;48.838;9.330;2023-04-30T08:10:39;98625.81;;;16.69;56.06
55604;BME280;41468;48.838;9.330;2023-04-30T08:13:07;98627.69;;;16.94;53.98
55604;BME280;41468;48.838;9.330;2023-04-30T08:15:34;98625.72;;;16.91;55.02
55604;BME280;41468;48.838;9.330;2023-04-30T08:18:01;98623.03;;;16.69;54.95
55604;BME280;41468;48.838;9.330;2023-04-30T08:20:28;98625.81;;;16.66;53.45
55604;BME280;41468;48.838;9.330;2023-04-30T08:22:55;98620.78;;;16.43;52.18
55604;BME280;41468;48.838;9.330;2023-04-30T08:25:21;98625.59;;;16.13;54.42
55604;BME280;41468;48.838;9.330;2023-04-30T08:27:48;98618.78;;;16.54;53.41
55604;BME280;41468;48.838;9.330;2023-04-30T08:30:15;98616.28;;;16.88;51.39
55604;BME280;41468;48.838;9.330;2023-04-30T08:32:42;98622.69;;;16.56;52.34
55604;BME280;41468;48.838;9.330;2023-04-30T08:35:09;98624.28;;;16.47;51.10
55604;BME280;41468;48.838;9.330;2023-04-30T08:37:36;98617.38;;;15.74;49.84
55604;BME280;41468;48.838;9.330;2023-04-30T08:40:03;98619.38;;;15.77;50.17
55604;BME280;41468;48.838;9.330;2023-04-30T08:42:35;98615.38;;;15.60;49.99
55604;BME280;41468;48.838;9.330;2023-04-30T08:45:03;98615.00;;;15.55;52.18
55604;BME280;41468;48.838;9.330;2023-04-30T08:47:30;98615.78;;;15.44;50.06
55604;BME280;41468;48.838;9.330;2023-04-30T08:49:57;98624.81;;;15.41;50.23
55604;BME280;41468;48.838;9.330;2023-04-30T08:52:25;98626.38;;;15.28;50.26
55604;BME280;41468;48.838;9.330;2023-04-30T08:54:56;98626.78;;;15.41;50.66
55604;BME280;41468;48.838;9.330;2023-04-30T08:57:28;98629.94;;;15.54;49.24
55604;BME280;41468;48.838;9.330;2023-04-30T09:00:00;98631.13;;;15.56;49.84
55604;BME280;41468;48.838;9.330;2023-04-30T09:02:27;98628.38;;;15.60;48.71
55604;BME280;41468;48.838;9.330;2023-04-30T09:04:54;98625.63;;;15.74;48.71
55604;BME280;41468;48.838;9.330;2023-04-30T09:07:21;98626.44;;;15.85;49.22
55604;BME280;41468;48.838;9.330;2023-04-30T09:09:51;98626.44;;;15.71;48.58
55604;BME280;41468;48.838;9.330;2023-04-30T09:12:19;98620.81;;;16.25;48.24
55604;BME280;41468;48.838;9.330;2023-04-30T09:15:00;98622.75;;;16.39;46.64
55604;BME280;41468;48.838;9.330;2023-04-30T09:17:28;98625.16;;;16.22;46.36
55604;BME280;41468;48.838;9.330;2023-04-30T09:20:08;98624.44;;;15.89;47.04
55604;BME280;41468;48.838;9.330;2023-04-30T09:22:36;98622.50;;;15.72;47.28
55604;BME280;41468;48.838;9.330;2023-04-30T09:25:04;98617.78;;;15.90;47.12
55604;BME280;41468;48.838;9.330;2023-04-30T09:27:31;98613.84;;;15.66;47.34
55604;BME280;41468;48.838;9.330;2023-04-30T09:29:58;98599.66;;;15.82;47.30
55604;BME280;41468;48.838;9.330;2023-04-30T09:32:25;98616.91;;;16.22;48.04
55604;BME280;41468;48.838;9.330;2023-04-30T09:34:52;98616.06;;;16.36;47.08
55604;BME280;41468;48.838;9.330;2023-04-30T09:37:18;98627.31;;;16.88;46.44
55604;BME280;41468;48.838;9.330;2023-04-30T09:39:53;98623.16;;;16.41;46.30
55604;BME280;41468;48.838;9.330;2023-04-30T09:42:21;98620.84;;;16.14;47.20
55604;BME280;41468;48.838;9.330;2023-04-30T09:44:47;98613.78;;;16.20;47.73
55604;BME280;41468;48.838;9.330;2023-04-30T09:47:16;98619.25;;;16.27;47.13
55604;BME280;41468;48.838;9.330;2023-04-30T09:49:47;98605.91;;;16.19;46.97
55604;BME280;41468;48.838;9.330;2023-04-30T09:52:18;98615.69;;;16.30;46.28
55604;BME280;41468;48.838;9.330;2023-04-30T09:54:46;98618.44;;;16.38;46.05
55604;BME280;41468;48.838;9.330;2023-04-30T09:57:14;98612.97;;;16.23;46.22
55604;BME280;41468;48.838;9.330;2023-04-30T09:59:44;98611.44;;;16.08;46.25
55604;BME280;41468;48.838;9.330;2023-04-30T10:02:15;98614.97;;;16.16;45.42
55604;BME280;41468;48.838;9.330;2023-04-30T10:04:43;98611.38;;;16.37;45.37
55604;BME280;41468;48.838;9.330;2023-04-30T10:09:48;98614.41;;;16.64;45.33
55604;BME280;41468;48.838;9.330;2023-04-30T10:12:25;98613.28;;;16.50;46.31
55604;BME280;41468;48.838;9.330;2023-04-30T10:15:10;98618.13;;;16.07;46.56
55604;BME280;41468;48.838;9.330;2023-04-30T10:17:40;98610.66;;;16.00;47.35
55604;BME280;41468;48.838;9.330;2023-04-30T10:20:11;98614.56;;;16.06;47.20
55604;BME280;41468;48.838;9.330;2023-04-30T10:22:38;98609.78;;;16.39;47.84
55604;BME280;41468;48.838;9.330;2023-04-30T10:25:07;98607.91;;;16.07;46.26
55604;BME280;41468;48.838;9.330;2023-04-30T10:27:36;98613.00;;;16.12;46.29
55604;BME280;41468;48.838;9.330;2023-04-30T10:30:06;98605.56;;;15.92;46.34
55604;BME280;41468;48.838;9.330;2023-04-30T10:32:43;98603.22;;;15.94;46.84
55604;BME280;41468;48.838;9.330;2023-04-30T10:35:23;98610.63;;;16.04;47.37
55604;BME280;41468;48.838;9.330;2023-04-30T10:37:56;98604.41;;;15.85;47.81
55604;BME280;41468;48.838;9.330;2023-04-30T10:40:25;98605.94;;;16.08;48.50
55604;BME280;41468;48.838;9.330;2023-04-30T10:42:53;98609.03;;;16.24;47.66
55604;BME280;41468;48.838;9.330;2023-04-30T10:45:36;98611.06;;;16.09;48.80
55604;BME280;41468;48.838;9.330;2023-04-30T10:48:08;98604.34;;;16.18;48.53
55604;BME280;41468;48.838;9.330;2023-04-30T10:50:42;98604.31;;;16.28;48.61
55604;BME280;41468;48.838;9.330;2023-04-30T10:53:13;98605.09;;;16.29;48.26
55604;BME280;41468;48.838;9.330;2023-04-30T10:55:56;98601.88;;;16.45;48.34
55604;BME280;41468;48.838;9.330;2023-04-30T10:58:29;98607.09;;;16.14;48.07
55604;BME280;41468;48.838;9.330;2023-04-30T11:01:04;98600.34;;;16.29;47.38
55604;BME280;41468;48.838;9.330;2023-04-30T11:03:33;98594.84;;;16.29;48.25
55604;BME280;41468;48.838;9.330;2023-04-30T11:06:13;98593.16;;;16.57;48.69
55604;BME280;41468;48.838;9.330;2023-04-30T11:08:44;98585.66;;;16.61;49.46
55604;BME280;41468;48.838;9.330;2023-04-30T11:11:16;98592.31;;;16.67;49.84
55604;BME280;41468;48.838;9.330;2023-04-30T11:13:44;98592.34;;;16.60;49.22
55604;BME280;41468;48.838;9.330;2023-04-30T11:16:11;98590.13;;;16.26;48.82
55604;BME280;41468;48.838;9.330;2023-04-30T11:18:45;98588.50;;;16.40;48.95
55604;BME280;41468;48.838;9.330;2023-04-30T11:21:12;98583.78;;;16.40;49.26
55604;BME280;41468;48.838;9.330;2023-04-30T11:23:40;98592.34;;;16.60;49.08
55604;BME280;41468;48.838;9.330;2023-04-30T11:26:10;98586.16;;;16.42;48.57
55604;BME280;41468;48.838;9.330;2023-04-30T11:28:37;98588.19;;;16.20;48.67
55604;BME280;41468;48.838;9.330;2023-04-30T11:31:04;98582.53;;;16.55;48.72
55604;BME280;41468;48.838;9.330;2023-04-30T11:33:32;98570.75;;;16.55;49.18
55604;BME280;41468;48.838;9.330;2023-04-30T11:36:00;98576.91;;;16.81;49.30
55604;BME280;41468;48.838;9.330;2023-04-30T11:38:34;98575.69;;;16.89;48.72
55604;BME280;41468;48.838;9.330;2023-04-30T11:41:02;98580.06;;;16.83;47.84
55604;BME280;41468;48.838;9.330;2023-04-30T11:43:31;98570.25;;;16.74;47.44
55604;BME280;41468;48.838;9.330;2023-04-30T11:46:04;98567.88;;;16.76;48.76
55604;BME280;41468;48.838;9.330;2023-04-30T11:48:33;98564.34;;;16.80;47.76
55604;BME280;41468;48.838;9.330;2023-04-30T11:51:05;98573.84;;;16.57;48.74
55604;BME280;41468;48.838;9.330;2023-04-30T11:53:39;98573.44;;;16.62;48.32
55604;BME280;41468;48.838;9.330;2023-04-30T11:56:07;98563.19;;;16.66;47.89
55604;BME280;41468;48.838;9.330;2023-04-30T11:58:35;98560.88;;;16.54;47.14
55604;BME280;41468;48.838;9.330;2023-04-30T12:01:05;98557.00;;;16.44;47.75
55604;BME280;41468;48.838;9.330;2023-04-30T12:03:39;98552.97;;;16.60;48.33
55604;BME280;41468;48.838;9.330;2023-04-30T12:06:09;98548.56;;;16.73;47.99
55604;BME280;41468;48.838;9.330;2023-04-30T12:08:36;98542.50;;;17.03;49.72
55604;BME280;41468;48.838;9.330;2023-04-30T12:11:03;98545.66;;;17.02;48.03
55604;BME280;41468;48.838;9.330;2023-04-30T12:13:33;98538.13;;;17.06;47.21
55604;BME280;41468;48.838;9.330;2023-04-30T12:16:00;98542.53;;;16.99;47.48
55604;BME280;41468;48.838;9.330;2023-04-30T12:18:27;98540.13;;;17.05;47.05
55604;BME280;41468;48.838;9.330;2023-04-30T12:20:53;98541.44;;;16.86;47.08
55604;BME280;41468;48.838;9.330;2023-04-30T12:23:20;98539.44;;;16.87;46.25
55604;BME280;41468;48.838;9.330;2023-04-30T12:25:48;98532.50;;;16.61;46.54
55604;BME280;41468;48.838;9.330;2023-04-30T12:28:14;98533.56;;;16.85;46.27
55604;BME280;41468;48.838;9.330;2023-04-30T12:30:41;98537.53;;;16.80;46.99
55604;BME280;41468;48.838;9.330;2023-04-30T12:33:09;98543.84;;;16.73;46.54
55604;BME280;41468;48.838;9.330;2023-04-30T12:35:41;98537.22;;;16.60;47.33
55604;BME280;41468;48.838;9.330;2023-04-30T12:38:15;98532.03;;;16.80;47.28
55604;BME280;41468;48.838;9.330;2023-04-30T12:40:46;98542.53;;;16.99;46.89
55604;BME280;41468;48.838;9.330;2023-04-30T12:43:15;98531.44;;;17.07;47.29
55604;BME280;41468;48.838;9.330;2023-04-30T12:45:44;98534.28;;;16.92;46.45
55604;BME280;41468;48.838;9.330;2023-04-30T12:48:13;98525.84;;;17.14;47.19
55604;BME280;41468;48.838;9.330;2023-04-30T12:50:40;98541.88;;;16.74;46.82
55604;BME280;41468;48.838;9.330;2023-04-30T12:53:07;98533.22;;;16.72;46.43
55604;BME280;41468;48.838;9.330;2023-04-30T12:55:34;98526.81;;;16.93;46.43
55604;BME280;41468;48.838;9.330;2023-04-30T12:58:06;98527.69;;;16.75;46.22
55604;BME280;41468;48.838;9.330;2023-04-30T13:00:46;98528.63;;;16.51;46.09
55604;BME280;41468;48.838;9.330;2023-04-30T13:03:15;98514.31;;;16.70;46.19
55604;BME280;41468;48.838;9.330;2023-04-30T13:05:49;98512.69;;;16.84;45.55
55604;BME280;41468;48.838;9.330;2023-04-30T13:08:17;98517.84;;;16.74;45.61
55604;BME280;41468;48.838;9.330;2023-04-30T13:10:44;98518.25;;;16.73;46.28
55604;BME280;41468;48.838;9.330;2023-04-30T13:13:13;98511.56;;;16.74;45.96
55604;BME280;41468;48.838;9.330;2023-04-30T13:15:41;98510.72;;;16.84;46.89
55604;BME280;41468;48.838;9.330;2023-04-30T13:18:09;98506.34;;;16.87;46.84